Henderson, Nevada
Current Conditions -  °F | °C
As of 1:15 PM on Wednesday 17 Dec 2014 (Local Time) from KBVU Reporting Station
Overcast Overcast  
Wind Chill: 54°   Ceiling: 2500
Heat Index: 54°   Visibility: 10mi
Dew Point: 43°   Wind: 8mph
Humidity: 67%   Direction: 160°SSE
Pressure: 30.02"   Gusts: NA
Location:  36.03°N, 114.98°W
Report Text: KBVU 172115Z AUTO 16007KT 10SM BKN025 BKN031 OVC040 12/06 A3002 RMK AO2
Loading
Personal Weather Stations






























Interactive Weather Map New forecast layout! Learn more

10-Day Weather Forecast

Advertisements
Track Severe Weather on mobile